createdAt,value
2023-01-23T00:00:58.357Z,18.60
2023-01-23T00:03:26.013Z,20.60
2023-01-23T00:06:04.295Z,17.00
2023-01-23T00:08:31.698Z,17.20
2023-01-23T00:10:59.104Z,19.50
2023-01-23T00:13:26.574Z,20.00
2023-01-23T00:15:54.352Z,24.80
2023-01-23T00:18:21.921Z,25.60
2023-01-23T00:20:49.268Z,22.60
2023-01-23T00:23:16.608Z,27.30
2023-01-23T00:25:44.095Z,27.80
2023-01-23T00:28:11.529Z,26.00
2023-01-23T00:30:38.939Z,25.80
2023-01-23T00:33:06.368Z,23.20
2023-01-23T00:35:37.500Z,22.40
2023-01-23T00:38:04.865Z,21.30
2023-01-23T00:40:32.213Z,29.40
2023-01-23T00:42:59.921Z,31.50
2023-01-23T00:45:27.515Z,22.70
2023-01-23T00:47:54.915Z,22.90
2023-01-23T00:50:22.355Z,29.70
2023-01-23T00:52:49.762Z,27.30
2023-01-23T00:55:17.813Z,18.40
2023-01-23T00:57:45.109Z,21.50
2023-01-23T01:00:12.786Z,22.20
2023-01-23T01:02:40.146Z,27.30
2023-01-23T01:05:07.897Z,20.50
2023-01-23T01:07:35.282Z,21.70
2023-01-23T01:10:02.743Z,20.70
2023-01-23T01:12:30.269Z,17.70
2023-01-23T01:14:57.937Z,15.20
2023-01-23T01:17:25.479Z,16.40
2023-01-23T01:19:53.067Z,15.90
2023-01-23T01:22:20.523Z,15.50
2023-01-23T01:24:48.303Z,19.50
2023-01-23T01:27:15.648Z,18.00
2023-01-23T01:29:42.900Z,14.70
2023-01-23T01:32:10.244Z,18.00
2023-01-23T01:34:37.549Z,18.80
2023-01-23T01:37:04.988Z,18.40
2023-01-23T01:39:32.370Z,16.30
2023-01-23T01:41:59.594Z,13.50
2023-01-23T01:44:28.153Z,16.60
2023-01-23T01:46:55.791Z,18.50
2023-01-23T01:49:31.124Z,17.50
2023-01-23T01:52:04.980Z,18.00
2023-01-23T01:54:43.999Z,15.90
2023-01-23T01:57:16.457Z,16.60
2023-01-23T01:59:46.709Z,20.20
2023-01-23T02:02:17.268Z,21.00
2023-01-23T02:04:48.674Z,19.60
2023-01-23T02:07:26.481Z,18.20
2023-01-23T02:09:54.324Z,20.90
2023-01-23T02:12:21.652Z,28.40
2023-01-23T02:14:49.140Z,27.10
2023-01-23T02:17:16.552Z,24.20
2023-01-23T02:20:03.272Z,25.70
2023-01-23T02:22:34.782Z,27.50
2023-01-23T02:25:29.418Z,28.50
2023-01-23T02:27:57.824Z,27.00
2023-01-23T02:30:25.335Z,24.90
2023-01-23T02:32:53.129Z,23.60
2023-01-23T02:35:24.599Z,20.70
2023-01-23T02:37:52.839Z,16.50
2023-01-23T02:40:22.482Z,21.70
2023-01-23T02:42:50.729Z,20.60
2023-01-23T02:45:18.648Z,22.10
2023-01-23T02:47:46.435Z,20.10
2023-01-23T02:50:13.961Z,21.90
2023-01-23T02:52:41.525Z,17.30
2023-01-23T02:55:09.183Z,19.50
2023-01-23T02:57:36.671Z,15.30
2023-01-23T03:00:16.999Z,19.20
2023-01-23T03:02:44.694Z,21.50
2023-01-23T03:05:12.039Z,24.30
2023-01-23T03:07:39.604Z,20.00
2023-01-23T03:10:10.424Z,17.20
2023-01-23T03:12:43.577Z,16.70
2023-01-23T03:15:11.645Z,17.10
2023-01-23T03:17:39.059Z,15.50
2023-01-23T03:20:07.624Z,17.40
2023-01-23T03:22:35.084Z,19.30
2023-01-23T03:25:02.767Z,23.50
2023-01-23T03:27:30.623Z,28.80
2023-01-23T03:30:13.497Z,21.10
2023-01-23T03:32:41.177Z,20.70
2023-01-23T03:35:10.521Z,20.30
2023-01-23T03:37:37.991Z,15.70
2023-01-23T03:40:24.818Z,15.60
2023-01-23T03:42:55.084Z,17.50
2023-01-23T03:45:26.403Z,16.70
2023-01-23T03:47:53.873Z,19.10
2023-01-23T03:50:21.761Z,16.10
2023-01-23T03:52:49.608Z,16.60
2023-01-23T03:55:17.114Z,18.40
2023-01-23T03:57:45.131Z,20.10
2023-01-23T04:00:25.442Z,23.20
2023-01-23T04:02:58.265Z,18.20
2023-01-23T04:05:25.622Z,18.70
2023-01-23T04:07:53.149Z,15.80
2023-01-23T04:10:20.898Z,15.60
2023-01-23T04:12:52.868Z,17.80
2023-01-23T04:15:20.324Z,23.40
2023-01-23T04:17:47.678Z,20.70
2023-01-23T04:20:15.307Z,18.30
2023-01-23T04:22:43.870Z,15.00
2023-01-23T04:25:11.568Z,13.40
2023-01-23T04:27:39.039Z,11.80
2023-01-23T04:30:07.755Z,9.90
2023-01-23T04:32:35.529Z,11.20
2023-01-23T04:35:03.188Z,12.90
2023-01-23T04:37:30.692Z,9.00
2023-01-23T04:39:58.353Z,11.80
2023-01-23T04:42:26.561Z,11.30
2023-01-23T04:45:08.559Z,12.30
2023-01-23T04:47:44.671Z,14.90
2023-01-23T04:50:12.309Z,9.30
2023-01-23T04:52:41.528Z,14.80
2023-01-23T04:55:09.420Z,12.60
2023-01-23T04:57:36.937Z,12.30
2023-01-23T05:00:14.747Z,11.70
2023-01-23T05:02:42.389Z,10.50
2023-01-23T05:05:09.996Z,10.00
2023-01-23T05:07:37.988Z,8.50
2023-01-23T05:12:37.756Z,8.30
2023-01-23T05:15:05.658Z,7.20
2023-01-23T08:31:43.187Z,18.70
2023-01-23T08:34:10.845Z,24.20
2023-01-23T08:36:38.274Z,21.10
2023-01-23T08:39:05.681Z,19.40
2023-01-23T08:41:33.060Z,18.60
2023-01-23T08:44:01.993Z,20.40
2023-01-23T08:46:29.516Z,19.90
2023-01-23T08:48:57.337Z,17.70
2023-01-23T08:51:25.781Z,18.70
2023-01-23T08:53:53.837Z,18.70
2023-01-23T08:56:22.507Z,19.30
2023-01-23T08:58:50.592Z,21.90
2023-01-23T09:01:27.362Z,19.90
2023-01-23T09:03:55.228Z,19.60
2023-01-23T09:06:23.295Z,18.90
2023-01-23T09:08:50.813Z,24.20
2023-01-23T09:11:18.407Z,24.10
2023-01-23T09:13:47.058Z,27.60
2023-01-23T09:16:14.581Z,21.30
2023-01-23T09:18:42.029Z,19.40
2023-01-23T09:21:11.565Z,22.40
2023-01-23T09:23:39.011Z,20.90
2023-01-23T09:26:11.250Z,22.80
2023-01-23T09:31:08.490Z,17.70
2023-01-23T09:33:36.143Z,20.30
2023-01-23T09:36:04.440Z,19.30
2023-01-23T09:38:33.705Z,20.90
2023-01-23T09:41:07.271Z,19.70
2023-01-23T09:43:52.130Z,19.40
2023-01-23T09:46:44.747Z,18.90
2023-01-23T09:49:18.445Z,18.70
2023-01-23T09:51:58.227Z,16.80
2023-01-23T09:54:46.707Z,19.10
2023-01-23T09:57:25.991Z,17.30
2023-01-23T10:00:11.522Z,16.60
2023-01-23T10:02:38.955Z,18.60
2023-01-23T10:05:13.947Z,18.30
2023-01-23T10:07:46.180Z,17.40
2023-01-23T10:10:55.572Z,17.10
2023-01-23T10:13:49.052Z,17.10
2023-01-23T10:16:50.451Z,16.20
2023-01-23T10:19:18.489Z,17.80
2023-01-23T10:21:52.672Z,18.10
2023-01-23T10:24:45.678Z,18.60
2023-01-23T10:27:19.314Z,20.00
2023-01-23T10:30:00.573Z,18.30
2023-01-23T10:32:30.276Z,19.30
2023-01-23T10:35:03.441Z,19.40
2023-01-23T10:37:31.612Z,18.50
2023-01-23T10:40:11.843Z,18.80
2023-01-23T10:42:39.340Z,21.60
2023-01-23T10:45:07.582Z,19.80
2023-01-23T10:47:37.056Z,21.40
2023-01-23T10:50:06.509Z,23.50
2023-01-23T10:52:37.879Z,27.00
2023-01-23T10:55:11.907Z,27.70
2023-01-23T10:57:50.342Z,23.80
2023-01-23T11:00:28.241Z,27.60
2023-01-23T11:02:55.867Z,24.10
2023-01-23T11:05:54.717Z,24.70
2023-01-23T11:08:27.620Z,24.40
2023-01-23T11:10:57.217Z,27.10
2023-01-23T11:13:31.331Z,24.70
2023-01-23T11:15:59.134Z,21.80
2023-01-23T11:18:34.723Z,19.60
2023-01-23T11:21:02.262Z,20.40
2023-01-23T11:23:29.792Z,20.60
2023-01-23T11:25:57.291Z,22.60
2023-01-23T11:28:34.271Z,19.20
2023-01-23T11:31:15.876Z,20.10
2023-01-23T11:33:55.307Z,22.10
2023-01-23T11:36:52.559Z,31.00
2023-01-23T11:39:44.223Z,23.50
2023-01-23T11:42:11.857Z,20.10
2023-01-23T11:44:45.963Z,22.30
2023-01-23T11:47:30.879Z,21.40
2023-01-23T11:50:07.747Z,21.10
2023-01-23T11:52:36.694Z,19.80
2023-01-23T11:55:13.174Z,18.50
2023-01-23T11:57:46.767Z,20.00
2023-01-23T12:00:34.355Z,18.80
2023-01-23T12:03:25.907Z,19.40
2023-01-23T12:09:17.745Z,19.10
2023-01-23T12:12:15.916Z,19.20
2023-01-23T12:15:18.984Z,18.50
2023-01-23T12:18:08.657Z,18.90
2023-01-23T12:20:42.304Z,19.70
2023-01-23T12:23:16.931Z,22.20
2023-01-23T12:26:14.680Z,20.10
2023-01-23T12:29:12.474Z,19.90
2023-01-23T12:31:52.773Z,20.40
2023-01-23T12:34:48.476Z,17.70
2023-01-23T12:37:35.069Z,19.00
2023-01-23T12:40:23.936Z,20.00
2023-01-23T12:42:51.655Z,18.50
2023-01-23T12:45:24.374Z,17.40
2023-01-23T12:48:13.090Z,19.70
2023-01-23T12:50:56.491Z,18.60
2023-01-23T12:53:24.267Z,20.90
2023-01-23T12:56:15.242Z,21.00
2023-01-23T12:58:51.781Z,21.70
2023-01-23T13:01:51.152Z,22.20
2023-01-23T13:04:27.819Z,25.40
2023-01-23T13:07:00.795Z,25.90
2023-01-23T13:10:08.684Z,25.80
2023-01-23T13:12:36.173Z,24.70
2023-01-23T13:15:38.739Z,25.00
2023-01-23T17:19:41.907Z,35.10
2023-01-23T17:22:22.112Z,40.30
2023-01-23T17:24:51.517Z,45.20
2023-01-23T17:27:21.689Z,35.50
2023-01-23T17:29:51.144Z,39.40
2023-01-23T17:32:29.722Z,39.80
2023-01-23T17:35:01.724Z,33.00
2023-01-23T17:37:32.360Z,32.60
2023-01-23T17:40:02.131Z,33.70
2023-01-23T17:42:31.643Z,32.70
2023-01-23T17:45:00.831Z,32.80
2023-01-23T17:51:54.943Z,33.40
2023-01-23T17:54:24.189Z,34.20
2023-01-23T17:56:54.929Z,31.80
2023-01-23T17:59:24.259Z,32.90
2023-01-23T18:01:53.574Z,30.90
2023-01-23T18:04:26.239Z,29.80
2023-01-23T18:06:55.270Z,27.90
2023-01-23T18:09:26.708Z,28.20
2023-01-23T18:11:56.076Z,25.60
2023-01-23T18:14:47.534Z,26.50
2023-01-23T18:17:33.816Z,22.40
2023-01-23T18:20:03.285Z,24.70
2023-01-23T18:22:33.397Z,22.10
2023-01-23T18:25:03.512Z,21.90
2023-01-23T18:27:33.225Z,22.10
2023-01-23T18:30:26.982Z,23.80
2023-01-23T18:33:02.212Z,20.50
2023-01-23T18:36:03.255Z,22.70
2023-01-23T18:38:59.940Z,22.70
2023-01-23T18:41:29.469Z,28.10
2023-01-23T18:44:08.126Z,28.20
2023-01-23T18:46:38.212Z,28.40
2023-01-23T18:49:07.492Z,26.90
2023-01-23T18:51:47.484Z,30.00
2023-01-23T18:54:28.822Z,26.30
2023-01-23T18:57:07.924Z,29.50
2023-01-23T18:59:46.205Z,26.80
2023-01-23T19:02:31.684Z,25.80
2023-01-23T19:05:16.365Z,27.60
2023-01-23T19:07:45.993Z,24.20
2023-01-23T19:10:23.276Z,23.10
2023-01-23T19:13:14.320Z,26.00
2023-01-23T19:15:49.271Z,27.00
2023-01-23T19:18:59.718Z,29.50
2023-01-23T19:21:38.642Z,27.30
2023-01-23T19:24:10.376Z,30.20
2023-01-23T19:26:41.021Z,28.00
2023-01-23T19:29:26.154Z,21.70
2023-01-23T19:32:09.988Z,20.60
2023-01-23T19:34:39.168Z,24.90
2023-01-23T19:37:08.535Z,23.60
2023-01-23T19:39:38.397Z,22.00
2023-01-23T19:42:13.107Z,18.10
2023-01-23T19:44:42.260Z,17.60
2023-01-23T19:47:11.495Z,18.10
2023-01-23T19:49:41.156Z,18.40
2023-01-23T19:52:13.877Z,19.30
2023-01-23T19:54:42.956Z,20.80
2023-01-23T19:57:13.777Z,22.90
2023-01-23T19:59:42.844Z,21.70
2023-01-23T20:02:19.826Z,21.70
2023-01-23T20:04:49.633Z,20.10
2023-01-23T20:07:18.783Z,22.30
2023-01-23T20:09:47.931Z,26.90
2023-01-23T20:12:18.191Z,24.80
2023-01-23T20:14:47.255Z,24.40
2023-01-23T20:17:16.206Z,28.00
2023-01-23T20:19:45.287Z,28.80
2023-01-23T20:22:15.318Z,33.80
2023-01-23T20:27:15.956Z,30.50
2023-01-23T20:29:45.421Z,37.10
2023-01-23T20:32:15.397Z,35.20
2023-01-23T20:34:44.407Z,36.40
2023-01-23T20:37:13.682Z,30.50
2023-01-23T20:39:44.994Z,30.20
2023-01-23T20:42:15.335Z,31.60
2023-01-23T20:44:46.840Z,31.50
2023-01-23T20:47:17.702Z,30.40
2023-01-23T20:49:47.588Z,31.40
2023-01-23T20:52:36.029Z,26.20
2023-01-23T20:55:05.531Z,27.30
2023-01-23T20:57:54.167Z,26.30
2023-01-23T21:00:23.389Z,27.40
2023-01-23T21:02:53.370Z,26.40
2023-01-23T21:05:23.230Z,26.50
2023-01-23T21:07:53.178Z,26.70
2023-01-23T21:10:22.537Z,28.80
2023-01-23T21:12:53.426Z,22.10
2023-01-23T21:15:23.064Z,24.70
2023-01-23T21:17:52.781Z,21.20
2023-01-23T21:20:22.822Z,22.10
2023-01-23T21:22:56.758Z,21.70
2023-01-23T21:25:27.265Z,23.80
2023-01-23T21:27:56.221Z,19.70
2023-01-23T21:30:24.899Z,19.40
2023-01-23T21:32:53.801Z,23.50
2023-01-23T21:35:23.238Z,19.40
2023-01-23T21:37:52.633Z,20.70
2023-01-23T21:40:21.926Z,20.60
2023-01-23T21:42:50.935Z,22.70
2023-01-23T21:45:26.230Z,22.40
2023-01-23T21:47:55.397Z,20.70
2023-01-23T21:50:24.317Z,23.10
2023-01-23T21:52:53.779Z,21.80
2023-01-23T21:55:23.548Z,22.60
2023-01-23T21:57:52.491Z,20.70
2023-01-23T22:00:53.985Z,23.20
2023-01-23T22:03:23.268Z,24.60
2023-01-23T22:05:52.990Z,24.20
2023-01-23T22:08:22.523Z,22.20
2023-01-23T22:10:51.865Z,23.80
2023-01-23T22:13:20.941Z,23.30
2023-01-23T22:15:49.782Z,26.80
2023-01-23T22:18:19.893Z,23.30
2023-01-23T22:20:56.630Z,24.60
2023-01-23T22:23:25.545Z,23.10
2023-01-23T22:25:59.368Z,22.00
2023-01-23T22:28:29.656Z,28.20
2023-01-23T22:30:58.436Z,25.40
2023-01-23T22:33:39.509Z,21.10
2023-01-23T22:36:11.209Z,18.90
2023-01-23T22:38:40.262Z,19.50
2023-01-23T22:41:12.539Z,16.70
2023-01-23T22:43:43.305Z,19.60
2023-01-23T22:46:16.698Z,18.60
2023-01-23T22:48:45.484Z,18.70
2023-01-23T22:51:28.643Z,16.10
2023-01-23T22:53:58.250Z,18.10
2023-01-23T22:56:27.485Z,17.30
2023-01-23T22:58:56.648Z,17.70
2023-01-23T23:01:27.425Z,17.20
2023-01-23T23:03:58.074Z,14.80
2023-01-23T23:06:27.308Z,17.10
2023-01-23T23:08:58.042Z,17.40
2023-01-23T23:11:27.822Z,16.30
2023-01-23T23:13:57.320Z,16.10
2023-01-23T23:16:28.123Z,16.90
2023-01-23T23:18:58.886Z,16.10
2023-01-23T23:21:30.521Z,15.80
2023-01-23T23:24:00.355Z,18.10
2023-01-23T23:26:30.253Z,15.00
2023-01-23T23:28:59.894Z,15.80
2023-01-23T23:31:29.158Z,16.60
2023-01-23T23:33:58.250Z,17.10
2023-01-23T23:36:27.219Z,14.90
2023-01-23T23:38:56.218Z,15.70
2023-01-23T23:41:25.234Z,16.10
2023-01-23T23:43:57.890Z,16.10
2023-01-23T23:46:26.680Z,19.00
2023-01-23T23:48:55.452Z,16.80
2023-01-23T23:51:26.792Z,16.00
2023-01-23T23:53:55.813Z,17.90
2023-01-23T23:56:27.655Z,16.50
2023-01-23T23:58:56.658Z,17.00
